createdAt,value
2019-05-15T00:01:12.343Z,8.70
2019-05-15T00:03:42.924Z,8.70
2019-05-15T00:06:13.620Z,8.70
2019-05-15T00:08:43.709Z,8.70
2019-05-15T00:11:14.301Z,8.70
2019-05-15T00:13:45.063Z,8.70
2019-05-15T00:16:17.980Z,8.70
2019-05-15T00:18:48.954Z,8.70
2019-05-15T00:21:52.488Z,8.70
2019-05-15T00:24:23.305Z,8.70
2019-05-15T00:26:54.523Z,8.70
2019-05-15T00:29:25.012Z,8.70
2019-05-15T00:31:58.769Z,8.70
2019-05-15T00:34:28.749Z,8.70
2019-05-15T00:36:59.093Z,8.70
2019-05-15T00:39:30.500Z,8.70
2019-05-15T00:42:01.846Z,8.70
2019-05-15T00:44:33.245Z,8.70
2019-05-15T00:47:03.612Z,8.70
2019-05-15T00:49:34.906Z,8.70
2019-05-15T00:52:11.761Z,8.70
2019-05-15T00:54:38.916Z,8.70
2019-05-15T00:57:09.471Z,8.70
2019-05-15T00:59:39.704Z,8.70
2019-05-15T01:02:12.159Z,8.70
2019-05-15T01:04:42.978Z,8.70
2019-05-15T01:07:15.240Z,8.70
2019-05-15T01:09:45.915Z,8.70
2019-05-15T01:12:18.494Z,8.70
2019-05-15T01:14:49.377Z,8.70
2019-05-15T01:17:22.112Z,8.80
2019-05-15T01:19:54.014Z,8.80
2019-05-15T01:22:24.265Z,8.80
2019-05-15T01:24:54.815Z,8.80
2019-05-15T01:27:26.234Z,8.80
2019-05-15T01:29:58.716Z,8.80
2019-05-15T01:32:28.822Z,8.80
2019-05-15T01:35:02.189Z,8.80
2019-05-15T01:37:34.892Z,8.80
2019-05-15T01:40:08.837Z,8.80
2019-05-15T01:42:43.236Z,8.80
2019-05-15T01:45:16.355Z,8.80
2019-05-15T01:47:48.034Z,8.80
2019-05-15T01:50:18.597Z,8.80
2019-05-15T01:52:49.332Z,8.80
2019-05-15T01:55:20.733Z,8.80
2019-05-15T01:57:51.795Z,8.80
2019-05-15T02:00:23.426Z,8.80
2019-05-15T02:02:53.646Z,8.80
2019-05-15T02:05:23.847Z,8.80
2019-05-15T02:07:58.400Z,8.80
2019-05-15T02:10:29.198Z,8.80
2019-05-15T02:12:59.711Z,8.80
2019-05-15T02:15:29.890Z,8.90
2019-05-15T02:18:01.652Z,8.90
2019-05-15T02:20:33.042Z,8.90
2019-05-15T02:23:03.790Z,8.90
2019-05-15T02:25:38.794Z,8.90
2019-05-15T02:28:09.842Z,8.90
2019-05-15T02:30:41.142Z,8.90
2019-05-15T02:33:11.787Z,8.80
2019-05-15T02:35:44.215Z,8.80
2019-05-15T02:38:15.793Z,8.80
2019-05-15T02:40:49.167Z,8.80
2019-05-15T02:43:19.121Z,8.80
2019-05-15T02:45:51.270Z,8.80
2019-05-15T02:48:22.436Z,8.80
2019-05-15T02:50:54.786Z,8.80
2019-05-15T02:53:30.038Z,8.80
2019-05-15T02:56:01.104Z,8.90
2019-05-15T02:58:31.168Z,8.80
2019-05-15T03:01:02.399Z,8.90
2019-05-15T03:03:33.452Z,8.80
2019-05-15T03:06:05.456Z,8.80
2019-05-15T03:08:35.674Z,8.90
2019-05-15T03:11:09.627Z,8.80
2019-05-15T03:13:41.998Z,8.80
2019-05-15T03:16:14.359Z,8.80
2019-05-15T03:18:46.006Z,8.80
2019-05-15T03:21:18.765Z,8.80
2019-05-15T03:23:53.499Z,8.80
2019-05-15T03:26:25.877Z,8.80
2019-05-15T03:28:59.026Z,8.90
2019-05-15T03:31:49.022Z,8.90
2019-05-15T03:34:04.055Z,8.90
2019-05-15T03:36:35.872Z,8.80
2019-05-15T03:39:09.688Z,8.90
2019-05-15T03:41:39.498Z,8.90
2019-05-15T03:44:09.700Z,8.90
2019-05-15T03:46:40.681Z,8.90
2019-05-15T03:49:11.898Z,8.90
2019-05-15T03:51:46.176Z,9.00
2019-05-15T03:54:18.947Z,9.00
2019-05-15T03:56:50.864Z,9.00
2019-05-15T03:59:24.423Z,9.00
2019-05-15T04:02:00.005Z,9.00
2019-05-15T04:04:33.074Z,9.00
2019-05-15T04:07:03.954Z,9.00
2019-05-15T04:09:38.868Z,9.00
2019-05-15T04:12:13.767Z,9.10
2019-05-15T04:14:49.835Z,9.20
2019-05-15T04:17:20.336Z,9.20
2019-05-15T04:19:55.562Z,9.20
2019-05-15T04:22:28.793Z,9.20
2019-05-15T04:24:59.472Z,9.20
2019-05-15T04:27:32.841Z,9.20
2019-05-15T04:30:05.862Z,9.30
2019-05-15T04:32:39.779Z,9.30
2019-05-15T04:35:11.885Z,9.30
2019-05-15T04:37:42.973Z,9.30
2019-05-15T04:40:14.594Z,9.30
2019-05-15T04:42:49.626Z,9.30
2019-05-15T04:45:19.574Z,9.30
2019-05-15T04:47:54.128Z,9.30
2019-05-15T04:50:28.793Z,9.30
2019-05-15T04:53:01.292Z,9.30
2019-05-15T04:55:39.906Z,9.30
2019-05-15T04:58:10.771Z,9.30
2019-05-15T05:00:52.794Z,9.30
2019-05-15T05:03:24.420Z,9.40
2019-05-15T05:05:54.922Z,9.40
2019-05-15T05:08:28.980Z,9.40
2019-05-15T05:11:00.313Z,9.50
2019-05-15T05:13:30.959Z,9.50
2019-05-15T05:16:03.303Z,9.50
2019-05-15T05:18:34.725Z,9.50
2019-05-15T05:21:07.740Z,9.50
2019-05-15T05:23:41.602Z,9.50
2019-05-15T05:26:12.590Z,9.50
2019-05-15T05:28:44.414Z,9.50
2019-05-15T05:31:15.033Z,9.50
2019-05-15T05:33:48.802Z,9.50
2019-05-15T05:36:20.103Z,9.60
2019-05-15T05:38:50.144Z,9.60
2019-05-15T05:41:21.797Z,9.60
2019-05-15T05:43:55.281Z,9.60
2019-05-15T05:46:29.659Z,9.60
2019-05-15T05:49:08.074Z,9.60
2019-05-15T05:51:39.715Z,9.60
2019-05-15T05:54:12.171Z,9.70
2019-05-15T05:56:44.916Z,9.70
2019-05-15T05:59:18.506Z,9.70
2019-05-15T06:01:52.278Z,9.80
2019-05-15T06:04:23.725Z,9.70
2019-05-15T06:07:07.137Z,9.70
2019-05-15T06:09:29.108Z,9.80
2019-05-15T06:11:59.841Z,9.80
2019-05-15T06:14:33.393Z,9.80
2019-05-15T06:17:05.283Z,9.90
2019-05-15T06:19:38.617Z,9.90
2019-05-15T06:22:10.222Z,10.00
2019-05-15T06:24:42.460Z,10.00
2019-05-15T06:27:12.866Z,10.10
2019-05-15T06:29:45.136Z,10.20
2019-05-15T06:32:19.418Z,10.30
2019-05-15T06:34:52.980Z,10.40
2019-05-15T06:37:28.539Z,10.40
2019-05-15T06:40:02.518Z,10.50
2019-05-15T06:42:35.460Z,10.60
2019-05-15T06:45:08.288Z,10.60
2019-05-15T06:47:42.959Z,10.60
2019-05-15T06:50:17.975Z,10.70
2019-05-15T06:52:50.314Z,10.70
2019-05-15T06:55:21.573Z,10.70
2019-05-15T06:57:53.778Z,10.80
2019-05-15T07:00:28.221Z,10.70
2019-05-15T07:03:00.834Z,10.80
2019-05-15T07:05:33.554Z,10.80
2019-05-15T07:08:05.465Z,10.90
2019-05-15T07:10:38.926Z,10.90
2019-05-15T07:13:12.824Z,10.90
2019-05-15T07:15:45.941Z,10.90
2019-05-15T07:18:19.860Z,10.90
2019-05-15T07:20:51.048Z,10.90
2019-05-15T07:23:27.106Z,10.90
2019-05-15T07:25:58.753Z,10.90
2019-05-15T07:28:34.859Z,10.90
2019-05-15T07:31:11.257Z,11.00
2019-05-15T07:33:43.633Z,11.00
2019-05-15T07:36:14.607Z,11.00
2019-05-15T07:38:48.520Z,11.00
2019-05-15T07:41:24.230Z,11.00
2019-05-15T07:43:58.410Z,11.00
2019-05-15T07:46:31.533Z,11.00
2019-05-15T07:49:03.241Z,11.00
2019-05-15T07:51:34.767Z,11.00
2019-05-15T07:54:09.251Z,11.00
2019-05-15T07:56:41.484Z,11.00
2019-05-15T07:59:15.135Z,11.00
2019-05-15T08:01:48.842Z,11.00
2019-05-15T08:04:28.787Z,11.00
2019-05-15T08:06:58.931Z,11.00
2019-05-15T08:09:30.445Z,11.00
2019-05-15T08:12:03.432Z,11.10
2019-05-15T08:14:38.680Z,11.00
2019-05-15T08:17:09.060Z,11.10
2019-05-15T08:19:40.032Z,11.10
2019-05-15T08:22:11.006Z,11.10
2019-05-15T08:24:42.795Z,11.10
2019-05-15T08:27:14.512Z,11.10
2019-05-15T08:29:48.550Z,11.10
2019-05-15T08:32:19.036Z,11.10
2019-05-15T08:34:51.809Z,11.10
2019-05-15T08:37:23.966Z,11.10
2019-05-15T08:39:55.612Z,11.00
2019-05-15T08:42:28.096Z,11.10
2019-05-15T08:44:58.999Z,11.10
2019-05-15T08:47:30.879Z,11.10
2019-05-15T08:50:01.632Z,11.10
2019-05-15T08:52:33.332Z,11.10
2019-05-15T08:55:20.184Z,11.10
2019-05-15T08:57:55.928Z,11.10
2019-05-15T09:00:25.711Z,11.10
2019-05-15T09:02:58.318Z,11.10
2019-05-15T09:05:30.956Z,11.10
2019-05-15T09:08:02.944Z,11.20
2019-05-15T09:10:33.972Z,11.10
2019-05-15T09:13:05.320Z,11.10
2019-05-15T09:15:39.521Z,11.10
2019-05-15T09:18:16.009Z,11.10
2019-05-15T09:20:44.119Z,11.10
2019-05-15T09:23:14.510Z,11.10
2019-05-15T09:25:45.415Z,11.10
2019-05-15T09:28:18.931Z,11.10
2019-05-15T09:30:51.647Z,11.10
2019-05-15T09:33:25.586Z,11.10
2019-05-15T09:36:00.266Z,11.10
2019-05-15T09:38:32.489Z,11.10
2019-05-15T09:41:08.695Z,11.20
2019-05-15T09:43:42.311Z,11.20
2019-05-15T09:46:13.844Z,11.30
2019-05-15T09:48:51.253Z,11.30
2019-05-15T09:51:22.273Z,11.40
2019-05-15T09:53:54.379Z,11.50
2019-05-15T09:56:25.253Z,11.50
2019-05-15T09:58:58.180Z,11.60
2019-05-15T10:01:30.813Z,11.60
2019-05-15T10:04:08.144Z,11.60
2019-05-15T10:06:40.099Z,11.60
2019-05-15T10:09:14.250Z,11.60
2019-05-15T10:11:45.955Z,11.50
2019-05-15T10:14:19.469Z,11.50
2019-05-15T10:16:55.080Z,11.50
2019-05-15T10:19:29.784Z,11.50
2019-05-15T10:22:03.163Z,11.50
2019-05-15T10:24:34.843Z,11.50
2019-05-15T10:27:08.759Z,11.60
2019-05-15T10:29:40.737Z,11.60
2019-05-15T10:32:12.006Z,11.60
2019-05-15T10:34:45.702Z,11.60
2019-05-15T10:37:21.357Z,11.60
2019-05-15T10:39:54.495Z,11.60
2019-05-15T10:42:25.506Z,11.60
2019-05-15T10:44:58.929Z,11.60
2019-05-15T10:47:30.852Z,11.60
2019-05-15T10:50:02.524Z,11.70
2019-05-15T10:52:33.324Z,11.60
2019-05-15T10:55:08.912Z,11.70
2019-05-15T10:57:44.179Z,11.60
2019-05-15T11:00:15.072Z,11.50
2019-05-15T11:02:50.351Z,11.50
2019-05-15T11:05:37.379Z,11.50
2019-05-15T11:07:58.935Z,11.40
2019-05-15T11:10:34.939Z,11.40
2019-05-15T11:13:08.812Z,11.40
2019-05-15T11:15:42.657Z,11.30
2019-05-15T11:18:15.293Z,11.30
2019-05-15T11:20:48.758Z,11.20
2019-05-15T11:23:20.337Z,11.20
2019-05-15T11:25:52.595Z,11.10
2019-05-15T11:28:31.808Z,11.20
2019-05-15T11:31:03.769Z,11.10
2019-05-15T11:33:38.496Z,11.10
2019-05-15T11:36:09.714Z,11.10
2019-05-15T11:38:40.770Z,11.10
2019-05-15T11:41:14.398Z,11.10
2019-05-15T11:43:49.285Z,11.10
2019-05-15T11:46:20.413Z,11.10
2019-05-15T11:48:54.097Z,11.10
2019-05-15T11:51:29.229Z,11.10
2019-05-15T11:54:01.013Z,11.20
2019-05-15T11:56:32.678Z,11.20
2019-05-15T11:59:03.593Z,11.20
2019-05-15T12:01:34.835Z,11.20
2019-05-15T12:04:09.142Z,11.20
2019-05-15T12:06:41.963Z,11.20
2019-05-15T12:09:14.165Z,11.20
2019-05-15T12:11:46.107Z,11.20
2019-05-15T12:14:19.654Z,11.20
2019-05-15T12:17:05.136Z,11.20
2019-05-15T12:19:28.975Z,11.20
2019-05-15T12:22:01.493Z,11.20
2019-05-15T12:24:36.891Z,11.20
2019-05-15T12:27:15.199Z,11.20
2019-05-15T12:29:41.568Z,11.20
2019-05-15T12:34:49.525Z,11.30
2019-05-15T12:37:21.626Z,11.30
2019-05-15T12:39:25.958Z,11.30
2019-05-15T13:00:32.792Z,11.40
2019-05-15T13:03:03.222Z,11.40
2019-05-15T13:05:35.056Z,11.40
2019-05-15T13:08:08.348Z,11.40
2019-05-15T13:10:40.341Z,11.40
2019-05-15T13:13:12.168Z,11.40
2019-05-15T13:15:48.098Z,11.40
2019-05-15T13:18:18.552Z,11.40
2019-05-15T13:20:50.013Z,11.40
2019-05-15T13:23:21.141Z,11.40
2019-05-15T13:25:52.729Z,11.40
2019-05-15T13:28:24.804Z,11.40
2019-05-15T13:30:59.559Z,11.40
2019-05-15T13:33:33.418Z,11.40
2019-05-15T13:36:10.103Z,11.40
2019-05-15T13:38:48.474Z,11.40
2019-05-15T13:41:29.699Z,11.40
2019-05-15T13:44:02.326Z,11.40
2019-05-15T13:46:38.124Z,11.40
2019-05-15T13:49:10.543Z,11.40
2019-05-15T13:51:43.240Z,11.40
2019-05-15T13:54:14.884Z,11.40
2019-05-15T13:56:48.623Z,11.50
2019-05-15T13:59:22.847Z,11.50
2019-05-15T14:01:53.966Z,11.50
2019-05-15T14:04:25.923Z,11.50
2019-05-15T14:06:58.777Z,11.50
2019-05-15T14:09:34.058Z,11.50
2019-05-15T14:12:11.594Z,11.50
2019-05-15T14:14:42.433Z,11.50
2019-05-15T14:17:13.240Z,11.50
2019-05-15T14:19:44.389Z,11.50
2019-05-15T14:22:16.893Z,11.50
2019-05-15T14:24:50.612Z,11.60
2019-05-15T14:27:21.489Z,11.50
2019-05-15T14:29:58.060Z,11.50
2019-05-15T14:32:37.705Z,11.50
2019-05-15T14:35:03.950Z,11.50
2019-05-15T14:37:36.232Z,11.50
2019-05-15T14:40:12.400Z,11.50
2019-05-15T14:42:48.345Z,11.60
2019-05-15T14:45:21.559Z,11.50
2019-05-15T14:47:54.438Z,11.50
2019-05-15T14:50:25.616Z,11.60
2019-05-15T14:52:58.590Z,11.50
2019-05-15T14:55:34.854Z,11.60
2019-05-15T14:58:08.375Z,11.60
2019-05-15T15:00:41.860Z,11.60
2019-05-15T15:03:15.499Z,11.60
2019-05-15T15:05:51.289Z,11.60
2019-05-15T15:08:25.309Z,11.60
2019-05-15T15:10:59.442Z,11.60
2019-05-15T15:13:30.326Z,11.60
2019-05-15T15:16:05.361Z,11.60
2019-05-15T15:18:40.690Z,11.70
2019-05-15T15:21:12.279Z,11.60
2019-05-15T15:23:42.742Z,11.60
2019-05-15T15:26:15.825Z,11.60
2019-05-15T15:28:48.938Z,11.60
2019-05-15T15:31:21.457Z,11.60
2019-05-15T15:33:57.959Z,11.60
2019-05-15T15:36:30.782Z,11.60
2019-05-15T15:39:08.108Z,11.60
2019-05-15T15:41:44.738Z,11.60
2019-05-15T15:44:20.974Z,11.60
2019-05-15T15:46:58.902Z,11.60
2019-05-15T15:49:33.760Z,11.60
2019-05-15T15:52:10.291Z,11.60
2019-05-15T15:54:45.880Z,11.70
2019-05-15T15:57:28.372Z,11.70
2019-05-15T16:00:04.525Z,11.70
2019-05-15T16:02:40.960Z,11.70
2019-05-15T16:05:15.537Z,11.70
2019-05-15T16:07:49.917Z,11.70
2019-05-15T16:10:23.631Z,11.70
2019-05-15T16:13:05.429Z,11.70
2019-05-15T16:15:41.500Z,11.70
2019-05-15T16:18:18.139Z,11.80
2019-05-15T16:20:57.952Z,11.80
2019-05-15T16:23:38.528Z,11.80
2019-05-15T16:26:19.282Z,11.80
2019-05-15T16:29:01.592Z,11.80
2019-05-15T16:31:40.989Z,11.80
2019-05-15T16:34:18.793Z,11.80
2019-05-15T16:36:58.699Z,11.90
2019-05-15T16:39:44.086Z,11.90
2019-05-15T16:46:29.185Z,11.90
2019-05-15T16:49:13.472Z,12.00
2019-05-15T16:51:49.277Z,12.00
2019-05-15T16:54:38.291Z,12.00
2019-05-15T16:57:18.435Z,12.00
2019-05-15T16:59:58.636Z,12.00
2019-05-15T17:02:40.667Z,12.10
2019-05-15T17:05:21.258Z,12.10
2019-05-15T17:07:52.098Z,12.10
2019-05-15T17:10:51.995Z,12.10
2019-05-15T17:13:24.336Z,12.10
2019-05-15T17:15:59.951Z,12.10
2019-05-15T17:18:33.191Z,12.20
2019-05-15T17:21:09.540Z,12.20
2019-05-15T17:23:39.941Z,12.20
2019-05-15T17:26:14.868Z,12.20
2019-05-15T17:28:48.052Z,12.30
2019-05-15T17:31:23.825Z,12.30
2019-05-15T17:33:58.233Z,12.30
2019-05-15T17:36:31.953Z,12.40
2019-05-15T17:39:03.689Z,12.40
2019-05-15T17:41:35.651Z,12.40
2019-05-15T17:44:10.091Z,12.40
2019-05-15T17:46:48.957Z,12.40
2019-05-15T17:49:24.303Z,12.40
2019-05-15T17:51:58.084Z,12.50
2019-05-15T17:54:49.084Z,12.50
2019-05-15T17:57:22.506Z,12.50
2019-05-15T17:59:53.661Z,12.50
2019-05-15T18:02:28.538Z,12.50
2019-05-15T18:04:59.842Z,12.60
2019-05-15T18:07:31.893Z,12.60
2019-05-15T18:10:08.468Z,12.60
2019-05-15T18:13:19.380Z,12.60
2019-05-15T18:15:53.184Z,12.60
2019-05-15T18:18:35.537Z,12.60
2019-05-15T18:21:08.825Z,12.60
2019-05-15T18:23:40.685Z,12.60
2019-05-15T18:26:15.491Z,12.60
2019-05-15T18:28:48.895Z,12.60
2019-05-15T18:31:20.095Z,12.60
2019-05-15T18:33:53.689Z,12.60
2019-05-15T18:36:25.663Z,12.70
2019-05-15T18:39:25.355Z,12.70
2019-05-15T18:41:58.366Z,12.70
2019-05-15T18:44:33.298Z,12.70
2019-05-15T18:47:10.877Z,12.70
2019-05-15T18:49:41.829Z,12.70
2019-05-15T18:52:18.197Z,12.80
2019-05-15T18:54:49.873Z,12.80
2019-05-15T18:57:24.240Z,12.70
2019-05-15T18:59:58.030Z,12.80
2019-05-15T19:02:29.261Z,12.80
2019-05-15T19:05:02.227Z,12.80
2019-05-15T19:07:32.914Z,12.80
2019-05-15T19:10:03.990Z,12.80
2019-05-15T19:12:48.433Z,12.80
2019-05-15T19:15:21.712Z,12.80
2019-05-15T19:17:58.575Z,12.80
2019-05-15T19:20:32.470Z,12.80
2019-05-15T19:23:04.206Z,12.80
2019-05-15T19:25:35.167Z,12.80
2019-05-15T19:28:08.469Z,12.90
2019-05-15T19:30:40.611Z,12.90
2019-05-15T19:54:14.535Z,12.90
2019-05-15T19:56:53.644Z,12.90
2019-05-15T19:59:25.902Z,12.90
2019-05-15T20:02:00.206Z,12.90
2019-05-15T20:04:32.232Z,12.90
2019-05-15T20:07:02.887Z,12.90
2019-05-15T20:09:34.469Z,12.90
2019-05-15T20:12:09.038Z,12.90
